Terminal Aerodrome Forecast
Issued by NWS

Home | Current Version | Previous Version | Text Only | Print | Product List | Glossary On
Versions: 1 2 3 4 5 6 7 8 9 10 11 12
000
FTUS43 KMPX 121100
TAFAXN
TAF
KAXN 121139Z 1212/1312 03005KT P6SM BKN120
     FM121600 32009KT P6SM BKN120
     FM130100 28005KT P6SM SCT100=

USA.gov is the U.S. government's official web portal to all federal, state and local government web resources and services.